Time;durP1;ratioP1;P1;durP2;ratioP2;P2;SDS_P1;SDS_P2;PMS_P1;PMS_P2;Temp;Humidity;BMP_temperature;BMP_pressure;BME280_temperature;BME280_humidity;BME280_pressure;Samples;Min_cycle;Max_cycle;Signal;HPM_P1;HPM_P2
2024/02/23 00:02:27;;;;;;;2.33;1.07;;;;;;;8.47;100.00;97327.63;5038090;28;20479;-78
2024/02/23 00:04:55;;;;;;;5.30;1.10;;;;;;;8.45;100.00;97324.44;5057037;28;20885;-78
2024/02/23 00:07:28;;;;;;;2.63;1.00;;;;;;;8.40;100.00;97314.63;5041440;28;20429;-78
2024/02/23 00:10:03;;;;;;;2.77;1.00;;;;;;;8.36;100.00;97304.84;5055966;28;20432;-78
2024/02/23 00:12:36;;;;;;;3.15;1.20;;;;;;;8.39;100.00;97299.50;5035639;28;20440;-78
2024/02/23 00:15:10;;;;;;;2.80;1.00;;;;;;;8.40;100.00;97325.47;5039382;28;20435;-79
2024/02/23 00:17:43;;;;;;;1.90;1.10;;;;;;;8.37;100.00;97331.59;5058185;28;20421;-78
2024/02/23 00:20:12;;;;;;;3.07;1.40;;;;;;;8.32;100.00;97318.28;5037677;28;20429;-78
2024/02/23 00:22:45;;;;;;;4.25;1.20;;;;;;;8.24;100.00;97340.91;5054820;28;20426;-78
2024/02/23 00:25:20;;;;;;;1.98;1.00;;;;;;;8.24;100.00;97338.97;5038085;28;20426;-79
2024/02/23 00:27:53;;;;;;;4.00;1.20;;;;;;;8.25;100.00;97351.41;5056762;28;20421;-78
2024/02/23 00:30:27;;;;;;;4.37;1.23;;;;;;;8.16;100.00;97353.47;5037784;28;20432;-80
2024/02/23 00:33:00;;;;;;;1.10;0.80;;;;;;;7.99;100.00;97365.38;5058445;28;20788;-78
2024/02/23 00:35:33;;;;;;;1.15;0.90;;;;;;;7.79;100.00;97372.56;5057301;28;20758;-79
2024/02/23 00:38:07;;;;;;;1.58;0.75;;;;;;;7.73;100.00;97373.91;5059086;28;20418;-78
2024/02/23 00:40:42;;;;;;;1.77;0.82;;;;;;;7.63;100.00;97370.56;5038660;28;20429;-78
2024/02/23 00:43:15;;;;;;;1.80;0.77;;;;;;;7.47;100.00;97383.19;5055575;28;20423;-78
2024/02/23 00:45:48;;;;;;;1.60;0.60;;;;;;;7.37;100.00;97364.75;5057036;28;20749;-78
2024/02/23 00:48:21;;;;;;;2.35;0.73;;;;;;;7.38;100.00;97386.03;5044272;28;20788;-78
2024/02/23 00:50:55;;;;;;;1.35;0.70;;;;;;;7.47;100.00;97389.41;5037893;28;20789;-79
2024/02/23 00:53:23;;;;;;;1.17;0.60;;;;;;;7.47;100.00;97396.72;5055011;28;20816;-78
2024/02/23 00:55:57;;;;;;;1.87;0.80;;;;;;;7.50;100.00;97409.59;5057692;28;20489;-78
2024/02/23 00:58:31;;;;;;;1.73;0.75;;;;;;;7.49;100.00;97400.69;5055652;28;20424;-78
2024/02/23 01:01:04;;;;;;;2.40;0.80;;;;;;;7.46;100.00;97392.47;5053765;28;20430;-78
2024/02/23 01:03:37;;;;;;;1.85;0.80;;;;;;;7.43;100.00;97409.34;5052858;28;20414;-79
2024/02/23 01:06:10;;;;;;;1.60;0.80;;;;;;;7.42;100.00;97407.81;5038234;28;20438;-78
2024/02/23 01:08:44;;;;;;;2.20;0.93;;;;;;;7.31;100.00;97419.06;5052158;28;20930;-78
2024/02/23 01:11:13;;;;;;;1.47;0.90;;;;;;;7.31;100.00;97421.00;5054295;28;20402;-78
2024/02/23 01:13:46;;;;;;;1.65;0.80;;;;;;;7.34;100.00;97433.06;5057322;28;20416;-78
2024/02/23 01:16:20;;;;;;;2.33;0.80;;;;;;;7.30;100.00;97435.63;5054510;28;20440;-78
2024/02/23 01:18:53;;;;;;;2.45;0.98;;;;;;;7.24;100.00;97445.09;5058910;28;20961;-78
2024/02/23 01:21:26;;;;;;;2.00;0.90;;;;;;;7.25;100.00;97455.59;5043726;28;20470;-78
2024/02/23 01:24:00;;;;;;;3.80;1.10;;;;;;;7.20;100.00;97463.91;5042257;28;20921;-78
2024/02/23 01:26:35;;;;;;;3.00;0.90;;;;;;;7.19;100.00;97466.97;5039883;28;20428;-78
2024/02/23 01:29:08;;;;;;;2.60;1.02;;;;;;;7.20;100.00;97472.03;5043281;28;20427;-78
2024/02/23 01:31:41;;;;;;;2.67;1.00;;;;;;;7.09;100.00;97523.03;5041910;28;20441;-78
2024/02/23 01:34:09;;;;;;;2.90;1.10;;;;;;;6.95;100.00;97536.88;5060357;28;20498;-78
2024/02/23 01:36:38;;;;;;;2.35;0.85;;;;;;;6.57;100.00;97562.16;5062701;28;20437;-78
2024/02/23 01:39:12;;;;;;;1.63;0.50;;;;;;;5.57;100.00;97549.03;5042233;28;20432;-78
2024/02/23 01:41:46;;;;;;;1.30;0.52;;;;;;;5.26;100.00;97565.47;5046742;28;20446;-78
2024/02/23 01:44:21;;;;;;;0.67;0.40;;;;;;;5.19;100.00;97573.28;5038718;28;20456;-78
2024/02/23 01:46:54;;;;;;;0.80;0.50;;;;;;;5.14;100.00;97600.38;5046012;28;20444;-78
2024/02/23 01:49:31;;;;;;;0.75;0.45;;;;;;;5.14;100.00;97598.50;5042184;28;20862;-78
2024/02/23 01:51:59;;;;;;;1.00;0.50;;;;;;;5.06;100.00;97602.78;5049113;28;20983;-78
2024/02/23 01:54:29;;;;;;;1.65;0.50;;;;;;;5.05;100.00;97601.19;5038707;28;20432;-78
2024/02/23 01:57:04;;;;;;;0.50;0.50;;;;;;;5.13;100.00;97623.88;5057943;28;20770;-78
2024/02/23 01:59:32;;;;;;;2.80;0.60;;;;;;;5.10;100.00;97622.59;5037274;28;20428;-78
2024/02/23 02:02:06;;;;;;;1.30;0.60;;;;;;;5.02;100.00;97653.03;5058914;28;20425;-78
2024/02/23 02:04:39;;;;;;;0.52;0.50;;;;;;;5.11;100.00;97664.63;5044544;28;20442;-78
2024/02/23 02:07:12;;;;;;;0.95;0.73;;;;;;;5.00;100.00;97662.56;5059568;28;20411;-78
2024/02/23 02:09:41;;;;;;;1.15;0.70;;;;;;;5.00;100.00;97678.72;5040284;28;20421;-78
2024/02/23 02:12:15;;;;;;;1.40;0.68;;;;;;;5.04;100.00;97693.97;5055620;28;20798;-77
2024/02/23 02:14:44;;;;;;;1.20;0.80;;;;;;;5.01;100.00;97694.56;5040067;28;20439;-78
2024/02/23 02:17:17;;;;;;;1.67;0.80;;;;;;;5.05;100.00;97705.53;5055768;28;21104;-77
2024/02/23 02:19:51;;;;;;;0.67;0.67;;;;;;;5.02;100.00;97708.88;5056669;28;20427;-78
2024/02/23 02:22:24;;;;;;;1.10;0.70;;;;;;;4.94;100.00;97721.22;5057512;28;20429;-78
2024/02/23 02:24:58;;;;;;;0.60;0.60;;;;;;;4.89;100.00;97707.91;5041701;28;20418;-78
2024/02/23 02:27:27;;;;;;;1.90;0.73;;;;;;;4.92;100.00;97718.06;5040648;28;20433;-77
2024/02/23 02:30:00;;;;;;;1.30;0.80;;;;;;;4.96;100.00;97735.19;5058366;28;20424;-77
2024/02/23 02:32:34;;;;;;;1.20;0.80;;;;;;;5.06;100.00;97734.06;5055610;28;20894;-78
2024/02/23 02:35:08;;;;;;;1.33;0.83;;;;;;;5.08;100.00;97740.75;5055195;28;20417;-78
2024/02/23 02:37:41;;;;;;;2.70;1.00;;;;;;;5.13;100.00;97753.25;5056819;28;20426;-77
2024/02/23 02:40:14;;;;;;;2.38;1.00;;;;;;;5.04;100.00;97766.75;5059141;28;20419;-78
2024/02/23 02:42:48;;;;;;;1.42;0.80;;;;;;;5.07;100.00;97776.09;5057016;28;20773;-78
2024/02/23 02:45:22;;;;;;;0.90;0.80;;;;;;;5.08;100.00;97774.97;5060131;28;20423;-78
2024/02/23 02:47:56;;;;;;;1.23;0.63;;;;;;;5.09;100.00;97776.56;5044601;28;20492;-77
2024/02/23 02:50:29;;;;;;;2.53;0.80;;;;;;;5.03;100.00;97789.41;5037258;28;20424;-77
2024/02/23 02:53:02;;;;;;;0.85;0.60;;;;;;;5.07;100.00;97813.84;5063229;28;20952;-77
2024/02/23 02:55:35;;;;;;;0.50;0.50;;;;;;;5.05;100.00;97810.66;5039854;28;20431;-77
2024/02/23 02:58:12;;;;;;;0.80;0.50;;;;;;;5.10;100.00;97819.38;5036210;28;20430;-77
2024/02/23 03:00:41;;;;;;;0.50;0.50;;;;;;;5.11;100.00;97842.53;5041543;28;20429;-77
2024/02/23 03:03:09;;;;;;;0.60;0.50;;;;;;;5.13;100.00;97850.31;5057951;28;20427;-78
2024/02/23 03:05:37;;;;;;;0.50;0.50;;;;;;;4.93;100.00;97843.63;5058456;28;20428;-78
2024/02/23 03:08:06;;;;;;;1.80;0.60;;;;;;;4.93;100.00;97860.56;5042892;28;20435;-77
2024/02/23 03:10:39;;;;;;;1.73;0.70;;;;;;;4.80;100.00;97868.75;5057547;28;20432;-78
2024/02/23 03:13:14;;;;;;;0.77;0.65;;;;;;;4.77;100.00;97878.25;5060839;28;20419;-78
2024/02/23 03:15:47;;;;;;;1.48;0.80;;;;;;;4.76;100.00;97882.84;5038816;28;20419;-77
2024/02/23 03:18:20;;;;;;;0.67;0.67;;;;;;;4.69;100.00;97903.25;5057516;28;20884;-77
2024/02/23 03:20:48;;;;;;;1.30;0.70;;;;;;;4.73;100.00;97907.69;5056951;28;20423;-77
2024/02/23 03:23:22;;;;;;;1.83;0.90;;;;;;;4.67;100.00;97918.91;5053726;28;20417;-77
2024/02/23 03:25:55;;;;;;;1.33;0.70;;;;;;;4.70;100.00;97923.69;5037428;28;20430;-77
2024/02/23 03:28:29;;;;;;;1.70;0.80;;;;;;;4.56;100.00;97923.78;5045523;28;20434;-78
2024/02/23 03:31:03;;;;;;;2.30;0.80;;;;;;;4.59;100.00;97934.72;5038535;28;20430;-77
2024/02/23 03:33:36;;;;;;;2.92;0.80;;;;;;;4.56;100.00;97926.47;5040360;28;20436;-77
2024/02/23 03:36:09;;;;;;;2.03;0.90;;;;;;;4.52;100.00;97933.59;5038744;28;20436;-78
2024/02/23 03:38:43;;;;;;;1.90;0.90;;;;;;;4.51;100.00;97929.28;5056227;28;20425;-78
2024/02/23 03:41:16;;;;;;;1.67;0.90;;;;;;;4.47;100.00;97939.88;5056654;28;20422;-77
2024/02/23 03:43:50;;;;;;;2.00;0.90;;;;;;;4.37;100.00;97932.84;5039730;28;20425;-78
2024/02/23 03:46:24;;;;;;;1.80;0.80;;;;;;;4.37;100.00;97950.91;5055709;28;20419;-77
2024/02/23 03:48:52;;;;;;;1.30;0.90;;;;;;;4.30;100.00;97962.09;5057563;28;20512;-78
2024/02/23 03:51:21;;;;;;;1.67;0.90;;;;;;;4.33;100.00;97974.16;5037953;28;20433;-77
2024/02/23 03:53:49;;;;;;;0.93;0.77;;;;;;;4.30;100.00;97980.94;5056408;28;20432;-77
2024/02/23 03:56:22;;;;;;;1.42;0.98;;;;;;;4.35;100.00;97990.78;5045192;28;20460;-77
2024/02/23 03:58:52;;;;;;;1.90;0.75;;;;;;;4.36;100.00;98001.25;5054773;28;20548;-77
2024/02/23 04:01:25;;;;;;;1.33;0.68;;;;;;;4.34;100.00;98005.38;5046646;28;20896;-77
2024/02/23 04:03:59;;;;;;;0.52;0.50;;;;;;;4.32;100.00;98004.84;5053853;28;20436;-77
2024/02/23 04:06:27;;;;;;;0.60;0.60;;;;;;;4.24;100.00;98012.56;5033900;28;20454;-77
2024/02/23 04:09:00;;;;;;;0.45;0.40;;;;;;;4.16;100.00;98015.19;5052077;28;20421;-77
2024/02/23 04:11:33;;;;;;;1.33;0.50;;;;;;;4.16;100.00;98028.66;5053002;28;20435;-78
2024/02/23 04:14:08;;;;;;;0.50;0.50;;;;;;;4.08;100.00;98035.53;5054350;28;20432;-77
2024/02/23 04:16:41;;;;;;;0.70;0.43;;;;;;;4.03;100.00;98035.63;5057404;28;20416;-77
2024/02/23 04:19:14;;;;;;;2.20;0.70;;;;;;;3.92;100.00;98043.94;5057288;28;20959;-77
2024/02/23 04:21:48;;;;;;;1.60;0.47;;;;;;;3.91;100.00;98047.72;5057019;28;20420;-77
2024/02/23 04:24:16;;;;;;;0.37;0.30;;;;;;;3.85;100.00;98054.31;5052347;28;20900;-78
2024/02/23 04:26:49;;;;;;;0.50;0.50;;;;;;;3.76;100.00;98064.16;5051210;28;20439;-77
2024/02/23 04:29:23;;;;;;;0.40;0.40;;;;;;;3.73;100.00;98079.00;5052624;28;20447;-78
2024/02/23 04:31:57;;;;;;;1.40;0.57;;;;;;;3.66;100.00;98077.78;5053307;28;20774;-77
2024/02/23 04:34:30;;;;;;;0.40;0.40;;;;;;;3.67;100.00;98080.19;5037502;28;20429;-78
2024/02/23 04:36:58;;;;;;;0.60;0.50;;;;;;;3.53;100.00;98085.56;5052615;28;20436;-77
2024/02/23 04:39:31;;;;;;;0.85;0.47;;;;;;;3.56;100.00;98094.91;5037776;28;20814;-78
2024/02/23 04:42:00;;;;;;;0.50;0.50;;;;;;;3.53;100.00;98104.38;5058664;28;20410;-77
2024/02/23 04:44:34;;;;;;;0.70;0.50;;;;;;;3.60;100.00;98105.91;5054551;28;20802;-78
2024/02/23 04:47:07;;;;;;;2.33;0.60;;;;;;;3.66;100.00;98108.19;5055477;28;20533;-78
2024/02/23 04:49:41;;;;;;;0.65;0.57;;;;;;;3.69;100.00;98121.03;5037390;28;20436;-77
2024/02/23 04:52:14;;;;;;;1.00;0.55;;;;;;;3.76;100.00;98131.41;5052402;28;20429;-77
2024/02/23 04:54:47;;;;;;;1.92;0.50;;;;;;;3.69;100.00;98137.19;5057430;28;20419;-78
2024/02/23 04:57:20;;;;;;;1.10;0.50;;;;;;;3.79;100.00;98144.25;5054906;28;20502;-78
2024/02/23 04:59:55;;;;;;;1.00;0.57;;;;;;;3.82;100.00;98138.28;5039798;28;20436;-77
2024/02/23 05:02:33;;;;;;;0.50;0.50;;;;;;;3.84;100.00;98138.81;5058447;28;21167;-78
2024/02/23 05:05:07;;;;;;;2.97;0.80;;;;;;;3.90;100.00;98148.34;5049085;28;20411;-77
2024/02/23 05:07:41;;;;;;;1.80;0.70;;;;;;;3.98;100.00;98149.56;5040016;28;20421;-77
2024/02/23 05:10:10;;;;;;;1.95;0.68;;;;;;;3.90;100.00;98155.63;5058379;28;20435;-77
2024/02/23 05:12:43;;;;;;;1.33;0.60;;;;;;;3.96;100.00;98156.34;5058402;28;20429;-77
2024/02/23 05:15:18;;;;;;;2.67;0.70;;;;;;;4.01;100.00;98150.88;5060425;28;20429;-77
2024/02/23 05:17:51;;;;;;;1.20;0.70;;;;;;;4.00;100.00;98168.09;5049279;28;20436;-77
2024/02/23 05:20:24;;;;;;;3.38;0.95;;;;;;;4.06;100.00;98175.78;5044212;28;20421;-77
2024/02/23 05:22:52;;;;;;;4.72;1.20;;;;;;;4.09;100.00;98188.63;5059237;28;21020;-77
2024/02/23 05:25:26;;;;;;;5.40;1.20;;;;;;;4.04;100.00;98191.41;5060638;28;20447;-77
2024/02/23 05:28:00;;;;;;;1.70;0.95;;;;;;;4.03;100.00;98184.47;5057574;28;20421;-77
2024/02/23 05:30:31;;;;;;;5.28;1.17;;;;;;;4.10;100.00;98189.44;5047355;28;20447;-77
2024/02/23 05:33:04;;;;;;;6.93;1.40;;;;;;;4.15;100.00;98204.69;5056164;28;20504;-78
2024/02/23 05:35:37;;;;;;;3.75;1.30;;;;;;;4.13;100.00;98210.38;5061138;28;20426;-77
2024/02/23 05:38:11;;;;;;;2.45;1.05;;;;;;;4.05;100.00;98211.88;5058126;28;20436;-77
2024/02/23 05:40:45;;;;;;;3.40;1.50;;;;;;;4.09;100.00;98195.94;5060638;28;20419;-77
2024/02/23 05:43:18;;;;;;;4.33;1.47;;;;;;;3.99;100.00;98188.84;5061165;28;20425;-77
2024/02/23 05:45:54;;;;;;;2.80;1.20;;;;;;;3.99;100.00;98223.81;5041175;28;20429;-77
2024/02/23 05:48:23;;;;;;;4.03;1.70;;;;;;;3.96;100.00;98224.41;5055759;28;20460;-77
2024/02/23 05:50:56;;;;;;;5.60;1.40;;;;;;;3.99;100.00;98231.09;5056322;28;20433;-77
2024/02/23 05:53:24;;;;;;;4.32;1.38;;;;;;;3.98;100.00;98234.88;5055640;28;20436;-78
2024/02/23 05:55:52;;;;;;;6.53;1.58;;;;;;;3.95;100.00;98240.84;5056992;28;20447;-77
2024/02/23 05:58:20;;;;;;;3.57;1.30;;;;;;;3.92;100.00;98234.16;5059714;28;20420;-77
2024/02/23 06:00:55;;;;;;;2.78;1.38;;;;;;;3.84;100.00;98242.91;5040805;28;20424;-77
2024/02/23 06:03:28;;;;;;;3.55;1.27;;;;;;;3.83;100.00;98258.25;5049920;28;20911;-77
2024/02/23 06:06:01;;;;;;;3.10;1.25;;;;;;;3.86;100.00;98252.28;5038666;28;20446;-77
2024/02/23 06:08:35;;;;;;;5.67;1.50;;;;;;;3.75;100.00;98257.03;5038336;28;20443;-77
2024/02/23 06:11:10;;;;;;;3.85;1.25;;;;;;;3.81;100.00;98247.00;5044325;28;20427;-77
2024/02/23 06:13:43;;;;;;;4.18;1.55;;;;;;;3.77;100.00;98255.94;5053287;28;20416;-77
2024/02/23 06:16:18;;;;;;;4.13;1.50;;;;;;;3.72;100.00;98273.78;5044416;28;20430;-77
2024/02/23 06:18:51;;;;;;;2.67;1.30;;;;;;;3.69;100.00;98270.88;5058051;28;20420;-77
2024/02/23 06:21:24;;;;;;;4.53;1.10;;;;;;;3.71;100.00;98287.50;5056195;28;20430;-77
2024/02/23 06:23:57;;;;;;;5.07;1.50;;;;;;;3.64;100.00;98289.78;5037722;28;20419;-77
2024/02/23 06:26:31;;;;;;;3.78;1.10;;;;;;;3.74;100.00;98297.69;5048377;28;20427;-77
2024/02/23 06:29:00;;;;;;;3.20;1.20;;;;;;;3.82;100.00;98307.78;5054549;28;20427;-77
2024/02/23 06:31:34;;;;;;;2.50;1.30;;;;;;;3.92;100.00;98291.47;5056580;28;20430;-77
2024/02/23 06:34:02;;;;;;;2.67;1.10;;;;;;;3.82;100.00;98305.09;5060553;28;20796;-77
2024/02/23 06:36:31;;;;;;;2.20;1.10;;;;;;;3.75;100.00;98326.19;5057445;28;20428;-77
2024/02/23 06:38:59;;;;;;;3.63;1.23;;;;;;;3.69;100.00;98312.03;5058033;28;20409;-77
2024/02/23 06:41:31;;;;;;;2.88;1.30;;;;;;;3.64;100.00;98322.06;5056829;28;20420;-77
2024/02/23 06:44:04;;;;;;;5.38;1.50;;;;;;;3.65;100.00;98327.16;5038587;28;20430;-77
2024/02/23 06:46:39;;;;;;;2.80;1.33;;;;;;;3.68;100.00;98326.56;5057117;28;20434;-77
2024/02/23 06:49:07;;;;;;;3.30;1.38;;;;;;;3.71;100.00;98339.41;5041246;28;20441;-78
2024/02/23 06:51:42;;;;;;;5.18;1.27;;;;;;;3.71;100.00;98344.78;5041510;28;20424;-77
2024/02/23 06:54:10;;;;;;;6.20;1.60;;;;;;;3.80;100.00;98344.13;5036725;28;20467;-78
2024/02/23 06:56:43;;;;;;;6.68;1.60;;;;;;;3.79;100.00;98345.25;5037114;28;20431;-78
2024/02/23 06:59:17;;;;;;;5.55;1.48;;;;;;;3.75;100.00;98353.88;5056485;28;20438;-77
2024/02/23 07:01:52;;;;;;;4.22;1.50;;;;;;;3.76;100.00;98357.38;5051612;28;20444;-78
2024/02/23 07:04:26;;;;;;;3.60;1.53;;;;;;;3.74;100.00;98367.63;5054974;28;20423;-77
2024/02/23 07:07:06;;;;;;;3.47;1.60;;;;;;;3.76;100.00;98376.22;5037415;28;20431;-77
2024/02/23 07:09:39;;;;;;;5.88;2.05;;;;;;;3.74;100.00;98378.38;5036735;28;20425;-77
2024/02/23 07:12:13;;;;;;;4.65;1.70;;;;;;;3.83;100.00;98394.69;5053492;28;20435;-77
2024/02/23 07:14:46;;;;;;;5.40;1.80;;;;;;;3.85;100.00;98387.13;5052735;28;20433;-77
2024/02/23 07:17:18;;;;;;;3.65;1.73;;;;;;;3.80;100.00;98400.63;5055293;28;20425;-78
2024/02/23 07:19:47;;;;;;;3.73;1.83;;;;;;;3.80;100.00;98406.00;5035978;28;20447;-77
2024/02/23 07:22:17;;;;;;;5.03;1.83;;;;;;;3.89;100.00;98406.97;5051565;28;20447;-78
2024/02/23 07:24:51;;;;;;;6.47;1.88;;;;;;;3.78;100.00;98406.31;5038430;28;20433;-77
2024/02/23 07:27:24;;;;;;;3.22;1.60;;;;;;;3.80;100.00;98414.91;5044273;28;20412;-77
2024/02/23 07:29:52;;;;;;;4.78;1.80;;;;;;;3.87;100.00;98422.63;5052303;28;20818;-78
2024/02/23 07:32:22;;;;;;;8.90;1.80;;;;;;;3.87;100.00;98423.41;5055288;28;20441;-77
2024/02/23 07:34:55;;;;;;;5.80;2.17;;;;;;;3.85;100.00;98430.16;5039511;28;20512;-77
2024/02/23 07:37:23;;;;;;;4.78;1.70;;;;;;;3.99;100.00;98436.44;5037226;28;20440;-77
2024/02/23 07:39:51;;;;;;;4.30;1.67;;;;;;;4.08;100.00;98444.66;5032591;28;20522;-77
2024/02/23 07:42:28;;;;;;;4.35;1.88;;;;;;;4.45;100.00;98447.56;5029017;28;20446;-77
2024/02/23 07:44:58;;;;;;;4.53;1.73;;;;;;;4.67;100.00;98447.75;5042716;28;20422;-78
2024/02/23 07:47:33;;;;;;;5.13;1.80;;;;;;;4.72;100.00;98444.16;5056196;28;20417;-78
2024/02/23 07:50:08;;;;;;;8.10;3.47;;;;;;;4.79;100.00;98449.19;5051445;28;21314;-77
2024/02/23 07:52:37;;;;;;;4.07;1.63;;;;;;;4.67;100.00;98455.84;5037829;28;20772;-78
2024/02/23 07:55:10;;;;;;;5.38;1.70;;;;;;;4.77;100.00;98460.25;5041970;28;20433;-77
2024/02/23 07:57:43;;;;;;;4.45;1.52;;;;;;;4.72;100.00;98468.41;5052391;28;20905;-78
2024/02/23 08:00:17;;;;;;;6.50;1.80;;;;;;;4.79;100.00;98474.22;5037489;28;20460;-78
2024/02/23 08:02:52;;;;;;;6.23;1.80;;;;;;;4.71;100.00;98464.94;5041808;28;20433;-78
2024/02/23 08:05:25;;;;;;;3.30;1.25;;;;;;;4.86;100.00;98458.47;5053927;28;20428;-80
2024/02/23 08:07:58;;;;;;;3.53;1.40;;;;;;;5.04;100.00;98474.88;5052187;28;20432;-78
2024/02/23 08:10:26;;;;;;;7.60;1.47;;;;;;;5.28;100.00;98461.22;5052364;28;20471;-78
2024/02/23 08:13:00;;;;;;;5.57;1.40;;;;;;;5.18;100.00;98472.19;5037681;28;20773;-77
2024/02/23 08:15:35;;;;;;;4.03;1.30;;;;;;;5.25;100.00;98473.41;5033387;28;20425;-78
2024/02/23 08:18:10;;;;;;;8.73;1.52;;;;;;;5.07;100.00;98480.47;5049675;28;20417;-79
2024/02/23 08:20:43;;;;;;;7.72;1.77;;;;;;;5.12;100.00;98484.97;5034158;28;20464;-80
2024/02/23 08:23:16;;;;;;;6.50;1.45;;;;;;;5.09;100.00;98472.88;5044162;28;20437;-80
2024/02/23 08:25:44;;;;;;;5.05;1.40;;;;;;;5.16;100.00;98499.44;5040081;28;21096;-79
2024/02/23 08:28:17;;;;;;;5.68;1.27;;;;;;;5.13;100.00;98488.47;5051587;28;20773;-79
2024/02/23 08:30:51;;;;;;;6.00;1.60;;;;;;;5.03;100.00;98492.16;5048392;28;20489;-80
2024/02/23 08:33:20;;;;;;;5.97;1.70;;;;;;;5.04;100.00;98499.13;5041118;28;20431;-81
2024/02/23 08:35:49;;;;;;;9.05;1.73;;;;;;;5.14;100.00;98495.44;5044138;28;20434;-79
2024/02/23 08:38:18;;;;;;;3.73;1.37;;;;;;;5.11;100.00;98494.97;5032267;28;20470;-79
2024/02/23 08:40:46;;;;;;;6.25;1.25;;;;;;;4.94;100.00;98503.63;5046314;28;20430;-80
2024/02/23 08:43:14;;;;;;;6.50;1.55;;;;;;;4.98;100.00;98508.41;5036383;28;20884;-79
2024/02/23 08:45:49;;;;;;;4.90;1.60;;;;;;;4.97;100.00;98496.81;5039054;28;20437;-79
2024/02/23 08:48:24;;;;;;;6.68;1.60;;;;;;;5.02;100.00;98504.03;5022997;28;20444;-79
2024/02/23 08:50:52;;;;;;;7.80;1.33;;;;;;;4.94;100.00;98508.19;5037502;28;20481;-79
2024/02/23 08:53:21;;;;;;;4.82;1.50;;;;;;;4.93;100.00;98515.50;5041391;28;20427;-79
2024/02/23 08:55:54;;;;;;;4.05;1.48;;;;;;;4.98;100.00;98516.50;5039653;28;21142;-79
2024/02/23 08:58:27;;;;;;;6.90;1.57;;;;;;;5.01;100.00;98518.59;5014265;28;20432;-79
2024/02/23 09:01:00;;;;;;;4.90;1.35;;;;;;;5.09;100.00;98526.81;5021809;28;20427;-79
2024/02/23 09:03:31;;;;;;;4.93;1.42;;;;;;;5.09;100.00;98529.50;5032245;28;20442;-80
2024/02/23 09:06:00;;;;;;;3.33;1.17;;;;;;;5.27;100.00;98535.13;5039007;28;20433;-80
2024/02/23 09:08:33;;;;;;;5.63;1.40;;;;;;;5.41;100.00;98538.66;5038422;28;20453;-79
2024/02/23 09:11:06;;;;;;;4.30;1.63;;;;;;;5.59;100.00;98549.66;5018129;28;20427;-79
2024/02/23 09:13:41;;;;;;;6.65;1.58;;;;;;;5.67;100.00;98550.88;5021000;28;20431;-79
2024/02/23 09:16:15;;;;;;;3.38;1.30;;;;;;;5.57;100.00;98546.47;5032536;28;20446;-79
2024/02/23 09:18:50;;;;;;;3.70;1.50;;;;;;;5.61;100.00;98556.34;5038162;28;20435;-78
2024/02/23 09:21:18;;;;;;;6.50;1.70;;;;;;;5.66;100.00;98551.94;5022169;28;20551;-79
2024/02/23 09:23:47;;;;;;;7.60;1.92;;;;;;;5.72;100.00;98575.06;5014264;28;20923;-79
2024/02/23 09:26:20;;;;;;;5.93;1.50;;;;;;;5.77;100.00;98551.47;5016431;28;20927;-79
2024/02/23 09:28:53;;;;;;;4.05;1.60;;;;;;;5.78;100.00;98561.13;5037476;28;20419;-79
2024/02/23 09:31:21;;;;;;;4.43;1.52;;;;;;;5.84;100.00;98564.56;5040686;28;20442;-78
2024/02/23 09:33:56;;;;;;;4.70;1.20;;;;;;;5.90;100.00;98570.66;5037798;28;20432;-79
2024/02/23 09:36:24;;;;;;;5.00;1.30;;;;;;;6.01;100.00;98560.47;5046123;28;20422;-79
2024/02/23 09:38:52;;;;;;;5.65;1.60;;;;;;;6.13;100.00;98566.16;5001929;28;22106;-79
2024/02/23 09:41:22;;;;;;;5.23;1.47;;;;;;;6.09;100.00;98576.78;5034548;28;20427;-79
2024/02/23 09:43:59;;;;;;;4.65;1.48;;;;;;;6.06;100.00;98582.78;5041679;28;20745;-79
2024/02/23 09:46:32;;;;;;;5.53;1.30;;;;;;;6.00;100.00;98588.59;5034244;28;20427;-79
2024/02/23 09:49:09;;;;;;;7.20;1.60;;;;;;;6.01;100.00;98593.69;5022015;28;20439;-79
2024/02/23 09:51:43;;;;;;;4.97;1.50;;;;;;;5.86;100.00;98600.16;5020652;28;20450;-79
2024/02/23 09:54:17;;;;;;;5.63;1.50;;;;;;;5.91;100.00;98600.06;5037602;28;20424;-78
2024/02/23 09:56:52;;;;;;;5.18;1.40;;;;;;;6.06;100.00;98604.38;5044115;28;20420;-78
2024/02/23 09:59:28;;;;;;;4.03;1.30;;;;;;;6.09;100.00;98609.19;5037132;28;20419;-79
2024/02/23 10:02:03;;;;;;;6.80;1.50;;;;;;;6.13;100.00;98609.34;5024332;28;20443;-79
2024/02/23 10:04:32;;;;;;;4.22;1.30;;;;;;;6.26;100.00;98610.47;5026636;28;20427;-79
2024/02/23 10:07:01;;;;;;;2.92;1.30;;;;;;;6.28;100.00;98622.56;5035224;28;20785;-79
2024/02/23 10:09:34;;;;;;;5.25;1.50;;;;;;;6.23;100.00;98617.28;5012910;28;20432;-79
2024/02/23 10:12:03;;;;;;;4.95;1.30;;;;;;;6.19;100.00;98629.78;5015436;28;20439;-79
2024/02/23 10:14:31;;;;;;;4.93;1.42;;;;;;;6.30;100.00;98638.47;5046581;28;20415;-81
2024/02/23 10:17:06;;;;;;;4.68;1.33;;;;;;;6.43;100.00;98644.97;5041855;28;20431;-78
2024/02/23 10:19:41;;;;;;;4.95;1.38;;;;;;;6.29;100.00;98645.75;5016731;28;20420;-79
2024/02/23 10:22:15;;;;;;;5.80;1.58;;;;;;;6.38;100.00;98642.34;5038426;28;20423;-79
2024/02/23 10:24:43;;;;;;;5.57;1.25;;;;;;;6.34;100.00;98652.16;5036262;28;21149;-79
2024/02/23 10:27:16;;;;;;;4.40;1.40;;;;;;;6.35;100.00;98665.38;5023513;28;20423;-79
2024/02/23 10:29:44;;;;;;;3.72;1.35;;;;;;;6.44;100.00;98666.28;5021569;28;20446;-78
2024/02/23 10:32:16;;;;;;;2.63;1.10;;;;;;;6.62;100.00;98669.94;5018381;28;20442;-79
2024/02/23 10:34:48;;;;;;;4.25;1.20;;;;;;;6.58;100.00;98674.38;5017318;28;20431;-78
2024/02/23 10:37:23;;;;;;;9.43;1.83;;;;;;;6.46;100.00;98671.38;5039375;28;20430;-79
2024/02/23 10:39:58;;;;;;;5.63;1.48;;;;;;;6.50;100.00;98685.09;5005473;28;20416;-79
2024/02/23 10:42:35;;;;;;;8.45;1.50;;;;;;;6.58;100.00;98679.78;5016439;28;20443;-79
2024/02/23 10:45:08;;;;;;;7.57;1.33;;;;;;;6.89;100.00;98687.25;5016956;28;20431;-79
2024/02/23 10:47:42;;;;;;;4.53;1.35;;;;;;;6.80;100.00;98695.25;5021860;28;20498;-79
2024/02/23 10:50:14;;;;;;;6.18;1.40;;;;;;;6.74;100.00;98691.06;5031272;28;20423;-79
2024/02/23 10:52:47;;;;;;;3.13;0.90;;;;;;;6.81;100.00;98677.16;5015855;28;20439;-78
2024/02/23 10:55:22;;;;;;;6.20;1.23;;;;;;;6.63;100.00;98695.88;5021836;28;21239;-79
2024/02/23 10:57:54;;;;;;;4.60;0.93;;;;;;;6.68;100.00;98691.47;5017157;28;20419;-79
2024/02/23 11:00:27;;;;;;;2.78;1.20;;;;;;;6.80;100.00;98689.06;5030021;28;21524;-78
2024/02/23 11:02:56;;;;;;;3.78;1.10;;;;;;;6.81;100.00;98694.16;5030521;28;20446;-79
2024/02/23 11:05:32;;;;;;;4.70;1.38;;;;;;;6.78;100.00;98692.06;5012633;28;20426;-78
2024/02/23 11:08:00;;;;;;;4.97;1.33;;;;;;;6.78;100.00;98707.47;5035595;28;21080;-79
2024/02/23 11:10:42;;;;;;;4.97;1.25;;;;;;;6.85;100.00;98704.34;5033477;28;20449;-79
2024/02/23 11:13:16;;;;;;;4.35;1.10;;;;;;;6.88;100.00;98704.56;5037194;28;20431;-79
2024/02/23 11:15:49;;;;;;;4.28;1.10;;;;;;;7.00;100.00;98714.03;5029285;28;20435;-79
2024/02/23 11:18:23;;;;;;;7.07;1.37;;;;;;;6.80;100.00;98711.47;5039287;28;20482;-79
2024/02/23 11:21:01;;;;;;;4.25;1.13;;;;;;;6.87;100.00;98716.47;5039285;28;21757;-79
2024/02/23 11:23:41;;;;;;;5.57;1.23;;;;;;;6.93;100.00;98715.28;5039033;28;21792;-79
2024/02/23 11:26:14;;;;;;;4.43;1.20;;;;;;;6.83;100.00;98706.56;5044291;28;20425;-79
2024/02/23 11:28:49;;;;;;;3.03;1.00;;;;;;;6.92;100.00;98704.75;5037324;28;21055;-79
2024/02/23 11:31:24;;;;;;;4.50;1.27;;;;;;;7.00;100.00;98704.00;5039277;28;20440;-79
2024/02/23 11:33:58;;;;;;;4.93;1.20;;;;;;;7.04;100.00;98706.91;5038803;28;21157;-78
2024/02/23 11:36:31;;;;;;;5.45;1.10;;;;;;;7.01;100.00;98705.63;5031215;28;20432;-79
2024/02/23 11:39:05;;;;;;;5.10;1.00;;;;;;;7.05;100.00;98693.09;5022135;28;20419;-79
2024/02/23 11:41:39;;;;;;;6.60;1.10;;;;;;;6.96;100.00;98708.44;5036430;28;20432;-79
2024/02/23 11:44:13;;;;;;;5.40;1.30;;;;;;;7.11;100.00;98707.28;5033107;28;20986;-79
2024/02/23 11:46:42;;;;;;;3.60;0.90;;;;;;;7.17;100.00;98695.28;5039813;28;20411;-79
2024/02/23 11:49:15;;;;;;;3.75;1.15;;;;;;;7.39;100.00;98699.06;5031317;28;20492;-79
2024/02/23 11:51:50;;;;;;;3.50;1.20;;;;;;;7.17;100.00;98695.28;5031350;28;20423;-79
2024/02/23 11:54:24;;;;;;;5.03;1.13;;;;;;;7.15;100.00;98703.69;5029292;28;20423;-79
2024/02/23 11:56:57;;;;;;;5.50;1.10;;;;;;;7.10;100.00;98700.31;5036507;28;20831;-79
2024/02/23 11:59:26;;;;;;;5.68;1.10;;;;;;;7.12;100.00;98692.66;5036164;28;20431;-79